Aviation Digital Data Service (ADDS)

Output produced by METARs form (2350 UTC 20 January 2019)
found at http://www.aviationweather.gov/metar/data/
 
METAR text: YBCS 202330Z AUTO 16007KT 9999 -SHRA SCT027 SCT033 BKN043 26/23 Q1010 RMK RF00.0/000.0 INTER 2330/0230 5000 SHRA BKN018
Conditions at: YBCS (CAIRNS AIRPORT , AU) observed 2330 UTC 20 January 2019
Temperature: 26.0°C (79°F)
Dewpoint: 23.0°C (73°F) [RH = 84%]
Pressure (altimeter): 29.82 inches Hg (1010.0 mb)
Winds: from the SSE (160 degrees) at 8 MPH (7 knots; 3.6 m/s)
Visibility: 6 or more miles (10+ km)
Ceiling: 4300 feet AGL
Clouds: scattered clouds at 2700 feet AGL
scattered clouds at 3300 feet AGL
broken clouds at 4300 feet AGL
Weather: -SHRA  (light rain showers)

METAR text: YBCS 202300Z AUTO 17008KT 9999 // SCT028 BKN059 BKN075 27/23 Q1010 RMK RF00.0/001.2 INTER 2300/0200 5000 SHRA BKN018
Conditions at: YBCS (CAIRNS AIRPORT , AU) observed 2300 UTC 20 January 2019
Temperature: 27.0°C (81°F)
Dewpoint: 23.0°C (73°F) [RH = 79%]
Pressure (altimeter): 29.82 inches Hg (1010.0 mb)
Winds: from the S (170 degrees) at 9 MPH (8 knots; 4.1 m/s)
Visibility: 6 or more miles (10+ km)
Ceiling: 5900 feet AGL
Clouds: scattered clouds at 2800 feet AGL
broken clouds at 5900 feet AGL
broken clouds at 7500 feet AGL
Weather: no significant weather observed at this time

METAR text: YBCS 202230Z AUTO 17008KT 9999 // SCT075 27/23 Q1010 RF00.0/001.2
Conditions at: YBCS (CAIRNS AIRPORT , AU) observed 2230 UTC 20 January 2019
Temperature: 27.0°C (81°F)
Dewpoint: 23.0°C (73°F) [RH = 79%]
Pressure (altimeter): 29.82 inches Hg (1010.0 mb)
Winds: from the S (170 degrees) at 9 MPH (8 knots; 4.1 m/s)
Visibility: 6 or more miles (10+ km)
Ceiling: at least 12,000 feet AGL
Clouds: scattered clouds at 7500 feet AGL
Weather: no significant weather observed at this time

METAR text: YBCS 202200Z AUTO 15007KT 9999 // SCT061 SCT073 26/22 Q1010 RMK RF00.0/001.2 INTER 2300/0100 5000 SHRA BKN018
Conditions at: YBCS (CAIRNS AIRPORT , AU) observed 2200 UTC 20 January 2019
Temperature: 26.0°C (79°F)
Dewpoint: 22.0°C (72°F) [RH = 79%]
Pressure (altimeter): 29.82 inches Hg (1010.0 mb)
Winds: from the SSE (150 degrees) at 8 MPH (7 knots; 3.6 m/s)
Visibility: 6 or more miles (10+ km)
Ceiling: at least 12,000 feet AGL
Clouds: scattered clouds at 6100 feet AGL
scattered clouds at 7300 feet AGL
Weather: no significant weather observed at this time

METAR text: YBCS 202130Z AUTO 17009KT 9999 // SCT021 SCT031 SCT040 24/22 Q1010 RMK RF00.0/001.2 FM2130 16010KT 9999 -SHRA FEW025 BKN045 INTER 2300/0030 5000 SHRA BKN018
Conditions at: YBCS (CAIRNS AIRPORT , AU) observed 2130 UTC 20 January 2019
Temperature: 24.0°C (75°F)
Dewpoint: 22.0°C (72°F) [RH = 89%]
Pressure (altimeter): 29.82 inches Hg (1010.0 mb)
Winds: from the S (170 degrees) at 10 MPH (9 knots; 4.6 m/s)
Visibility: 6 or more miles (10+ km)
Ceiling: at least 12,000 feet AGL
Clouds: scattered clouds at 2100 feet AGL
scattered clouds at 3100 feet AGL
scattered clouds at 4000 feet AGL
Weather: no significant weather observed at this time

METAR text: YBCS 202100Z AUTO 20008KT 9999 // BKN052 BKN061 BKN071 24/22 Q1010 RMK RF00.0/001.2 INTER 2300/2400 5000 SHRA BKN018
Conditions at: YBCS (CAIRNS AIRPORT , AU) observed 2100 UTC 20 January 2019
Temperature: 24.0°C (75°F)
Dewpoint: 22.0°C (72°F) [RH = 89%]
Pressure (altimeter): 29.82 inches Hg (1010.0 mb)
Winds: from the SSW (200 degrees) at 9 MPH (8 knots; 4.1 m/s)
Visibility: 6 or more miles (10+ km)
Ceiling: 5200 feet AGL
Clouds: broken clouds at 5200 feet AGL
broken clouds at 6100 feet AGL
broken clouds at 7100 feet AGL
Weather: no significant weather observed at this time

METAR text: YBCS 202030Z AUTO 17011KT 9999 // SCT049 BKN054 BKN063 24/21 Q1010 RMK RF00.0/001.2 INTER 2300/2330 5000 SHRA BKN018
Conditions at: YBCS (CAIRNS AIRPORT , AU) observed 2030 UTC 20 January 2019
Temperature: 24.0°C (75°F)
Dewpoint: 21.0°C (70°F) [RH = 83%]
Pressure (altimeter): 29.82 inches Hg (1010.0 mb)
Winds: from the S (170 degrees) at 13 MPH (11 knots; 5.7 m/s)
Visibility: 6 or more miles (10+ km)
Ceiling: 5400 feet AGL
Clouds: scattered clouds at 4900 feet AGL
broken clouds at 5400 feet AGL
broken clouds at 6300 feet AGL
Weather: no significant weather observed at this time

METAR text: YBCS 202000Z AUTO 15009KT 9999 // SCT029 SCT035 BKN054 24/22 Q1009 RMK RF00.0/001.2 NOSIG
Conditions at: YBCS (CAIRNS AIRPORT , AU) observed 2000 UTC 20 January 2019
Temperature: 24.0°C (75°F)
Dewpoint: 22.0°C (72°F) [RH = 89%]
Pressure (altimeter): 29.79 inches Hg (1009.0 mb)
Winds: from the SSE (150 degrees) at 10 MPH (9 knots; 4.6 m/s)
Visibility: 6 or more miles (10+ km)
Ceiling: 5400 feet AGL
Clouds: scattered clouds at 2900 feet AGL
scattered clouds at 3500 feet AGL
broken clouds at 5400 feet AGL
Weather: no significant weather observed at this time

METAR text: YBCS 201930Z AUTO 16010KT 9999 // SCT021 SCT027 SCT036 24/22 Q1009 RMK RF00.0/001.2 NOSIG
Conditions at: YBCS (CAIRNS AIRPORT , AU) observed 1930 UTC 20 January 2019
Temperature: 24.0°C (75°F)
Dewpoint: 22.0°C (72°F) [RH = 89%]
Pressure (altimeter): 29.79 inches Hg (1009.0 mb)
Winds: from the SSE (160 degrees) at 12 MPH (10 knots; 5.1 m/s)
Visibility: 6 or more miles (10+ km)
Ceiling: at least 12,000 feet AGL
Clouds: scattered clouds at 2100 feet AGL
scattered clouds at 2700 feet AGL
scattered clouds at 3600 feet AGL
Weather: no significant weather observed at this time

METAR text: YBCS 201900Z AUTO 15009KT 9999 // SCT023 SCT036 SCT045 24/22 Q1009 RMK RF00.0/001.2 NOSIG
Conditions at: YBCS (CAIRNS AIRPORT , AU) observed 1900 UTC 20 January 2019
Temperature: 24.0°C (75°F)
Dewpoint: 22.0°C (72°F) [RH = 89%]
Pressure (altimeter): 29.79 inches Hg (1009.0 mb)
Winds: from the SSE (150 degrees) at 10 MPH (9 knots; 4.6 m/s)
Visibility: 6 or more miles (10+ km)
Ceiling: at least 12,000 feet AGL
Clouds: scattered clouds at 2300 feet AGL
scattered clouds at 3600 feet AGL
scattered clouds at 4500 feet AGL
Weather: no significant weather observed at this time

METAR text: YBCS 201830Z AUTO 16009KT 130V190 9999 -SHRA SCT027 SCT035 BKN068 24/22 Q1009 RMK RF00.0/001.2 NOSIG
Conditions at: YBCS (CAIRNS AIRPORT , AU) observed 1830 UTC 20 January 2019
Temperature: 24.0°C (75°F)
Dewpoint: 22.0°C (72°F) [RH = 89%]
Pressure (altimeter): 29.79 inches Hg (1009.0 mb)
Winds: from the SSE (160 degrees) at 10 MPH (9 knots; 4.6 m/s)
Visibility: 6 or more miles (10+ km)
Ceiling: 6800 feet AGL
Clouds: scattered clouds at 2700 feet AGL
scattered clouds at 3500 feet AGL
broken clouds at 6800 feet AGL
Weather: -SHRA  (light rain showers)

METAR text: YBCS 201800Z AUTO 17010KT 9999 // SCT032 SCT041 BKN068 25/22 Q1008 RMK RF00.0/001.2 NOSIG
Conditions at: YBCS (CAIRNS AIRPORT , AU) observed 1800 UTC 20 January 2019
Temperature: 25.0°C (77°F)
Dewpoint: 22.0°C (72°F) [RH = 83%]
Pressure (altimeter): 29.76 inches Hg (1008.0 mb)
Winds: from the S (170 degrees) at 12 MPH (10 knots; 5.1 m/s)
Visibility: 6 or more miles (10+ km)
Ceiling: 6800 feet AGL
Clouds: scattered clouds at 3200 feet AGL
scattered clouds at 4100 feet AGL
broken clouds at 6800 feet AGL
Weather: no significant weather observed at this time

METAR text: YBCS 201730Z AUTO 17009KT 9999 -SHRA SCT032 BKN043 BKN071 25/22 Q1009 RMK RF00.0/001.2 NOSIG
Conditions at: YBCS (CAIRNS AIRPORT , AU) observed 1730 UTC 20 January 2019
Temperature: 25.0°C (77°F)
Dewpoint: 22.0°C (72°F) [RH = 83%]
Pressure (altimeter): 29.79 inches Hg (1009.0 mb)
Winds: from the S (170 degrees) at 10 MPH (9 knots; 4.6 m/s)
Visibility: 6 or more miles (10+ km)
Ceiling: 4300 feet AGL
Clouds: scattered clouds at 3200 feet AGL
broken clouds at 4300 feet AGL
broken clouds at 7100 feet AGL
Weather: -SHRA  (light rain showers)

METAR text: YBCS 201700Z AUTO 17009KT 9999 // SCT033 SCT044 25/22 Q1009 RMK RF00.0/001.2 NOSIG
Conditions at: YBCS (CAIRNS AIRPORT , AU) observed 1700 UTC 20 January 2019
Temperature: 25.0°C (77°F)
Dewpoint: 22.0°C (72°F) [RH = 83%]
Pressure (altimeter): 29.79 inches Hg (1009.0 mb)
Winds: from the S (170 degrees) at 10 MPH (9 knots; 4.6 m/s)
Visibility: 6 or more miles (10+ km)
Ceiling: at least 12,000 feet AGL
Clouds: scattered clouds at 3300 feet AGL
scattered clouds at 4400 feet AGL
Weather: no significant weather observed at this time

METAR text: YBCS 201630Z AUTO 16009KT 9999 // SCT033 SCT040 25/22 Q1009 RMK RF00.0/001.2 NOSIG
Conditions at: YBCS (CAIRNS AIRPORT , AU) observed 1630 UTC 20 January 2019
Temperature: 25.0°C (77°F)
Dewpoint: 22.0°C (72°F) [RH = 83%]
Pressure (altimeter): 29.79 inches Hg (1009.0 mb)
Winds: from the SSE (160 degrees) at 10 MPH (9 knots; 4.6 m/s)
Visibility: 6 or more miles (10+ km)
Ceiling: at least 12,000 feet AGL
Clouds: scattered clouds at 3300 feet AGL
scattered clouds at 4000 feet AGL
Weather: no significant weather observed at this time

METAR text: YBCS 201600Z AUTO 18010KT 9999 // SCT034 SCT055 25/22 Q1009 RMK RF00.0/001.2 NOSIG
Conditions at: YBCS (CAIRNS AIRPORT , AU) observed 1600 UTC 20 January 2019
Temperature: 25.0°C (77°F)
Dewpoint: 22.0°C (72°F) [RH = 83%]
Pressure (altimeter): 29.79 inches Hg (1009.0 mb)
Winds: from the S (180 degrees) at 12 MPH (10 knots; 5.1 m/s)
Visibility: 6 or more miles (10+ km)
Ceiling: at least 12,000 feet AGL
Clouds: scattered clouds at 3400 feet AGL
scattered clouds at 5500 feet AGL
Weather: no significant weather observed at this time

METAR text: YBCS 201530Z AUTO 19012KT 9999 // SCT028 SCT042 BKN061 25/22 Q1010 RESHRA RMK RF00.0/001.2 NOSIG
Conditions at: YBCS (CAIRNS AIRPORT , AU) observed 1530 UTC 20 January 2019
Temperature: 25.0°C (77°F)
Dewpoint: 22.0°C (72°F) [RH = 83%]
Pressure (altimeter): 29.82 inches Hg (1010.0 mb)
Winds: from the S (190 degrees) at 14 MPH (12 knots; 6.2 m/s)
Visibility: 6 or more miles (10+ km)
Ceiling: 6100 feet AGL
Clouds: scattered clouds at 2800 feet AGL
scattered clouds at 4200 feet AGL
broken clouds at 6100 feet AGL
Weather: no significant weather observed at this time

METAR text: YBCS 201500Z AUTO 18008KT 9999 RA SCT026 BKN034 OVC044 24/23 Q1010 RMK RF00.2/001.2 NOSIG
Conditions at: YBCS (CAIRNS AIRPORT , AU) observed 1500 UTC 20 January 2019
Temperature: 24.0°C (75°F)
Dewpoint: 23.0°C (73°F) [RH = 94%]
Pressure (altimeter): 29.82 inches Hg (1010.0 mb)
Winds: from the S (180 degrees) at 9 MPH (8 knots; 4.1 m/s)
Visibility: 6 or more miles (10+ km)
Ceiling: 3400 feet AGL
Clouds: scattered clouds at 2600 feet AGL
broken clouds at 3400 feet AGL
overcast cloud deck at 4400 feet AGL
Weather: RA  (moderate rain)

METAR text: YBCS 201430Z AUTO 17007KT 9999 // SCT029 BKN035 BKN068 25/22 Q1011 RMK RF00.0/000.4 NOSIG
Conditions at: YBCS (CAIRNS AIRPORT , AU) observed 1430 UTC 20 January 2019
Temperature: 25.0°C (77°F)
Dewpoint: 22.0°C (72°F) [RH = 83%]
Pressure (altimeter): 29.85 inches Hg (1011.0 mb)
Winds: from the S (170 degrees) at 8 MPH (7 knots; 3.6 m/s)
Visibility: 6 or more miles (10+ km)
Ceiling: 3500 feet AGL
Clouds: scattered clouds at 2900 feet AGL
broken clouds at 3500 feet AGL
broken clouds at 6800 feet AGL
Weather: no significant weather observed at this time

METAR text: YBCS 201400Z AUTO 14011KT 9999 // SCT028 SCT045 BKN051 25/22 Q1011 RMK RF00.0/000.4 NOSIG
Conditions at: YBCS (CAIRNS AIRPORT , AU) observed 1400 UTC 20 January 2019
Temperature: 25.0°C (77°F)
Dewpoint: 22.0°C (72°F) [RH = 83%]
Pressure (altimeter): 29.85 inches Hg (1011.0 mb)
Winds: from the SE (140 degrees) at 13 MPH (11 knots; 5.7 m/s)
Visibility: 6 or more miles (10+ km)
Ceiling: 5100 feet AGL
Clouds: scattered clouds at 2800 feet AGL
scattered clouds at 4500 feet AGL
broken clouds at 5100 feet AGL
Weather: no significant weather observed at this time

METAR text: YBCS 201330Z AUTO 14008KT 100V170 9999 // BKN083 25/22 Q1011 RMK RF00.0/000.4 NOSIG
Conditions at: YBCS (CAIRNS AIRPORT , AU) observed 1330 UTC 20 January 2019
Temperature: 25.0°C (77°F)
Dewpoint: 22.0°C (72°F) [RH = 83%]
Pressure (altimeter): 29.85 inches Hg (1011.0 mb)
Winds: from the SE (140 degrees) at 9 MPH (8 knots; 4.1 m/s)
Visibility: 6 or more miles (10+ km)
Ceiling: 8300 feet AGL
Clouds: broken clouds at 8300 feet AGL
Weather: no significant weather observed at this time

METAR text: YBCS 201300Z AUTO 15011KT 9999 // SCT053 SCT083 25/22 Q1012 RMK RF00.0/000.4 NOSIG
Conditions at: YBCS (CAIRNS AIRPORT , AU) observed 1300 UTC 20 January 2019
Temperature: 25.0°C (77°F)
Dewpoint: 22.0°C (72°F) [RH = 83%]
Pressure (altimeter): 29.88 inches Hg (1012.0 mb)
Winds: from the SSE (150 degrees) at 13 MPH (11 knots; 5.7 m/s)
Visibility: 6 or more miles (10+ km)
Ceiling: at least 12,000 feet AGL
Clouds: scattered clouds at 5300 feet AGL
scattered clouds at 8300 feet AGL
Weather: no significant weather observed at this time

METAR text: YBCS 201230Z AUTO 17010KT 9999 // BKN081 26/22 Q1012 RMK RF00.0/000.4 NOSIG
Conditions at: YBCS (CAIRNS AIRPORT , AU) observed 1230 UTC 20 January 2019
Temperature: 26.0°C (79°F)
Dewpoint: 22.0°C (72°F) [RH = 79%]
Pressure (altimeter): 29.88 inches Hg (1012.0 mb)
Winds: from the S (170 degrees) at 12 MPH (10 knots; 5.1 m/s)
Visibility: 6 or more miles (10+ km)
Ceiling: 8100 feet AGL
Clouds: broken clouds at 8100 feet AGL
Weather: no significant weather observed at this time

METAR text: YBCS 201200Z AUTO 15009KT 9999 // SCT062 OVC083 26/22 Q1012 RMK RF00.0/000.4 NOSIG
Conditions at: YBCS (CAIRNS AIRPORT , AU) observed 1200 UTC 20 January 2019
Temperature: 26.0°C (79°F)
Dewpoint: 22.0°C (72°F) [RH = 79%]
Pressure (altimeter): 29.88 inches Hg (1012.0 mb)
Winds: from the SSE (150 degrees) at 10 MPH (9 knots; 4.6 m/s)
Visibility: 6 or more miles (10+ km)
Ceiling: 8300 feet AGL
Clouds: scattered clouds at 6200 feet AGL
overcast cloud deck at 8300 feet AGL
Weather: no significant weather observed at this time

METAR text: YBCS 201130Z AUTO 15009KT 9999 // SCT036 SCT054 BKN064 26/22 Q1012 RMK RF00.0/000.4 NOSIG
Conditions at: YBCS (CAIRNS AIRPORT , AU) observed 1130 UTC 20 January 2019
Temperature: 26.0°C (79°F)
Dewpoint: 22.0°C (72°F) [RH = 79%]
Pressure (altimeter): 29.88 inches Hg (1012.0 mb)
Winds: from the SSE (150 degrees) at 10 MPH (9 knots; 4.6 m/s)
Visibility: 6 or more miles (10+ km)
Ceiling: 6400 feet AGL
Clouds: scattered clouds at 3600 feet AGL
scattered clouds at 5400 feet AGL
broken clouds at 6400 feet AGL
Weather: no significant weather observed at this time

METAR text: YBCS 201100Z AUTO 16009KT 9999 // SCT060 SCT072 BKN086 25/22 Q1012 RMK RF00.0/000.4 NOSIG
Conditions at: YBCS (CAIRNS AIRPORT , AU) observed 1100 UTC 20 January 2019
Temperature: 25.0°C (77°F)
Dewpoint: 22.0°C (72°F) [RH = 83%]
Pressure (altimeter): 29.88 inches Hg (1012.0 mb)
Winds: from the SSE (160 degrees) at 10 MPH (9 knots; 4.6 m/s)
Visibility: 6 or more miles (10+ km)
Ceiling: 8600 feet AGL
Clouds: scattered clouds at 6000 feet AGL
scattered clouds at 7200 feet AGL
broken clouds at 8600 feet AGL
Weather: no significant weather observed at this time

METAR text: YBCS 201030Z AUTO 18008KT 9999 -SHRA SCT044 SCT051 BKN060 25/22 Q1012 RMK RF00.0/000.4 NOSIG
Conditions at: YBCS (CAIRNS AIRPORT , AU) observed 1030 UTC 20 January 2019
Temperature: 25.0°C (77°F)
Dewpoint: 22.0°C (72°F) [RH = 83%]
Pressure (altimeter): 29.88 inches Hg (1012.0 mb)
Winds: from the S (180 degrees) at 9 MPH (8 knots; 4.1 m/s)
Visibility: 6 or more miles (10+ km)
Ceiling: 6000 feet AGL
Clouds: scattered clouds at 4400 feet AGL
scattered clouds at 5100 feet AGL
broken clouds at 6000 feet AGL
Weather: -SHRA  (light rain showers)

METAR text: YBCS 201000Z AUTO 17009KT 9999 // SCT032 SCT044 BKN051 26/22 Q1011 RMK RF00.0/000.2 NOSIG
Conditions at: YBCS (CAIRNS AIRPORT , AU) observed 1000 UTC 20 January 2019
Temperature: 26.0°C (79°F)
Dewpoint: 22.0°C (72°F) [RH = 79%]
Pressure (altimeter): 29.85 inches Hg (1011.0 mb)
Winds: from the S (170 degrees) at 10 MPH (9 knots; 4.6 m/s)
Visibility: 6 or more miles (10+ km)
Ceiling: 5100 feet AGL
Clouds: scattered clouds at 3200 feet AGL
scattered clouds at 4400 feet AGL
broken clouds at 5100 feet AGL
Weather: no significant weather observed at this time

METAR text: YBCS 200930Z AUTO 16009KT 9999 -SHRA SCT028 SCT038 BKN059 26/23 Q1011 RMK RF00.0/000.2 NOSIG
Conditions at: YBCS (CAIRNS AIRPORT , AU) observed 0930 UTC 20 January 2019
Temperature: 26.0°C (79°F)
Dewpoint: 23.0°C (73°F) [RH = 84%]
Pressure (altimeter): 29.85 inches Hg (1011.0 mb)
Winds: from the SSE (160 degrees) at 10 MPH (9 knots; 4.6 m/s)
Visibility: 6 or more miles (10+ km)
Ceiling: 5900 feet AGL
Clouds: scattered clouds at 2800 feet AGL
scattered clouds at 3800 feet AGL
broken clouds at 5900 feet AGL
Weather: -SHRA  (light rain showers)

METAR text: YBCS 200900Z AUTO 15009KT 9999 SHRA SCT028 SCT044 BKN059 26/23 Q1011 RMK RF00.0/000.2 NOSIG
Conditions at: YBCS (CAIRNS AIRPORT , AU) observed 0900 UTC 20 January 2019
Temperature: 26.0°C (79°F)
Dewpoint: 23.0°C (73°F) [RH = 84%]
Pressure (altimeter): 29.85 inches Hg (1011.0 mb)
Winds: from the SSE (150 degrees) at 10 MPH (9 knots; 4.6 m/s)
Visibility: 6 or more miles (10+ km)
Ceiling: 5900 feet AGL
Clouds: scattered clouds at 2800 feet AGL
scattered clouds at 4400 feet AGL
broken clouds at 5900 feet AGL
Weather: SHRA  (rain showers)

METAR text: YBCS 200830Z AUTO 14016KT 9999 // BKN028 BKN036 BKN045 27/22 Q1010 RMK RF00.0/000.0 NOSIG
Conditions at: YBCS (CAIRNS AIRPORT , AU) observed 0830 UTC 20 January 2019
Temperature: 27.0°C (81°F)
Dewpoint: 22.0°C (72°F) [RH = 74%]
Pressure (altimeter): 29.82 inches Hg (1010.0 mb)
Winds: from the SE (140 degrees) at 18 MPH (16 knots; 8.2 m/s)
Visibility: 6 or more miles (10+ km)
Ceiling: 2800 feet AGL
Clouds: broken clouds at 2800 feet AGL
broken clouds at 3600 feet AGL
broken clouds at 4500 feet AGL
Weather: no significant weather observed at this time

METAR text: YBCS 200800Z AUTO 12011KT 9999 // SCT035 SCT088 28/23 Q1010 RMK RF00.0/000.0 NOSIG
Conditions at: YBCS (CAIRNS AIRPORT , AU) observed 0800 UTC 20 January 2019
Temperature: 28.0°C (82°F)
Dewpoint: 23.0°C (73°F) [RH = 74%]
Pressure (altimeter): 29.82 inches Hg (1010.0 mb)
Winds: from the ESE (120 degrees) at 13 MPH (11 knots; 5.7 m/s)
Visibility: 6 or more miles (10+ km)
Ceiling: at least 12,000 feet AGL
Clouds: scattered clouds at 3500 feet AGL
scattered clouds at 8800 feet AGL
Weather: no significant weather observed at this time

METAR text: YBCS 200730Z AUTO 13012KT 9999 // SCT034 SCT048 SCT077 28/23 Q1009 RMK RF00.0/000.0 NOSIG
Conditions at: YBCS (CAIRNS AIRPORT , AU) observed 0730 UTC 20 January 2019
Temperature: 28.0°C (82°F)
Dewpoint: 23.0°C (73°F) [RH = 74%]
Pressure (altimeter): 29.79 inches Hg (1009.0 mb)
Winds: from the SE (130 degrees) at 14 MPH (12 knots; 6.2 m/s)
Visibility: 6 or more miles (10+ km)
Ceiling: at least 12,000 feet AGL
Clouds: scattered clouds at 3400 feet AGL
scattered clouds at 4800 feet AGL
scattered clouds at 7700 feet AGL
Weather: no significant weather observed at this time

METAR text: YBCS 200700Z AUTO 13015KT 9999 // SCT028 SCT064 BKN080 29/22 Q1010 RMK RF00.0/000.0 NOSIG
Conditions at: YBCS (CAIRNS AIRPORT , AU) observed 0700 UTC 20 January 2019
Temperature: 29.0°C (84°F)
Dewpoint: 22.0°C (72°F) [RH = 66%]
Pressure (altimeter): 29.82 inches Hg (1010.0 mb)
Winds: from the SE (130 degrees) at 17 MPH (15 knots; 7.7 m/s)
Visibility: 6 or more miles (10+ km)
Ceiling: 8000 feet AGL
Clouds: scattered clouds at 2800 feet AGL
scattered clouds at 6400 feet AGL
broken clouds at 8000 feet AGL
Weather: no significant weather observed at this time

METAR text: YBCS 200630Z AUTO 13014KT 9999 // SCT032 SCT069 SCT077 30/22 Q1009 RMK RF00.0/000.0 NOSIG
Conditions at: YBCS (CAIRNS AIRPORT , AU) observed 0630 UTC 20 January 2019
Temperature: 30.0°C (86°F)
Dewpoint: 22.0°C (72°F) [RH = 62%]
Pressure (altimeter): 29.79 inches Hg (1009.0 mb)
Winds: from the SE (130 degrees) at 16 MPH (14 knots; 7.2 m/s)
Visibility: 6 or more miles (10+ km)
Ceiling: at least 12,000 feet AGL
Clouds: scattered clouds at 3200 feet AGL
scattered clouds at 6900 feet AGL
scattered clouds at 7700 feet AGL
Weather: no significant weather observed at this time

METAR text: YBCS 200600Z AUTO 12014KT 9999 // SCT031 29/22 Q1009 NOSIG
Conditions at: YBCS (CAIRNS AIRPORT , AU) observed 0600 UTC 20 January 2019
Temperature: 29.0°C (84°F)
Dewpoint: 22.0°C (72°F) [RH = 66%]
Pressure (altimeter): 29.79 inches Hg (1009.0 mb)
Winds: from the ESE (120 degrees) at 16 MPH (14 knots; 7.2 m/s)
Visibility: 6 or more miles (10+ km)
Ceiling: at least 12,000 feet AGL
Clouds: scattered clouds at 3100 feet AGL
Weather: no significant weather observed at this time

METAR text: YBCS 200530Z AUTO 13015KT 9999 // SCT037 SCT047 SCT080 29/23 Q1009 RMK RF00.0/000.0 NOSIG
Conditions at: YBCS (CAIRNS AIRPORT , AU) observed 0530 UTC 20 January 2019
Temperature: 29.0°C (84°F)
Dewpoint: 23.0°C (73°F) [RH = 70%]
Pressure (altimeter): 29.79 inches Hg (1009.0 mb)
Winds: from the SE (130 degrees) at 17 MPH (15 knots; 7.7 m/s)
Visibility: 6 or more miles (10+ km)
Ceiling: at least 12,000 feet AGL
Clouds: scattered clouds at 3700 feet AGL
scattered clouds at 4700 feet AGL
scattered clouds at 8000 feet AGL
Weather: no significant weather observed at this time

METAR text: YBCS 200522Z AUTO 14016G26KT 9999 // SCT037 SCT047 29/23 Q1010 FM0522 12014KT 9999 FEW030 SCT045
Conditions at: YBCS (CAIRNS AIRPORT , AU) observed 0522 UTC 20 January 2019
Temperature: 29.0°C (84°F)
Dewpoint: 23.0°C (73°F) [RH = 70%]
Pressure (altimeter): 29.82 inches Hg (1010.0 mb)
Winds: from the SE (140 degrees) at 18 MPH (16 knots; 8.2 m/s)
gusting to 30 MPH (26 knots; 13.4 m/s)
Visibility: 6 or more miles (10+ km)
Ceiling: at least 12,000 feet AGL
Clouds: scattered clouds at 3700 feet AGL
scattered clouds at 4700 feet AGL
Weather: no significant weather observed at this time

METAR text: YBCS 200500Z AUTO 13015KT 9999 // SCT074 30/22 Q1010 RMK RF00.0/000.0 NOSIG
Conditions at: YBCS (CAIRNS AIRPORT , AU) observed 0500 UTC 20 January 2019
Temperature: 30.0°C (86°F)
Dewpoint: 22.0°C (72°F) [RH = 62%]
Pressure (altimeter): 29.82 inches Hg (1010.0 mb)
Winds: from the SE (130 degrees) at 17 MPH (15 knots; 7.7 m/s)
Visibility: 6 or more miles (10+ km)
Ceiling: at least 12,000 feet AGL
Clouds: scattered clouds at 7400 feet AGL
Weather: no significant weather observed at this time

METAR text: YBCS 200430Z AUTO 13018KT 9999 // SCT069 29/22 Q1010 RMK RF00.0/000.0 NOSIG
Conditions at: YBCS (CAIRNS AIRPORT , AU) observed 0430 UTC 20 January 2019
Temperature: 29.0°C (84°F)
Dewpoint: 22.0°C (72°F) [RH = 66%]
Pressure (altimeter): 29.82 inches Hg (1010.0 mb)
Winds: from the SE (130 degrees) at 21 MPH (18 knots; 9.3 m/s)
Visibility: 6 or more miles (10+ km)
Ceiling: at least 12,000 feet AGL
Clouds: scattered clouds at 6900 feet AGL
Weather: no significant weather observed at this time

METAR text: YBCS 200400Z AUTO 14016KT 9999 // SCT036 30/23 Q1010 RMK RF00.0/000.0 NOSIG
Conditions at: YBCS (CAIRNS AIRPORT , AU) observed 0400 UTC 20 January 2019
Temperature: 30.0°C (86°F)
Dewpoint: 23.0°C (73°F) [RH = 66%]
Pressure (altimeter): 29.82 inches Hg (1010.0 mb)
Winds: from the SE (140 degrees) at 18 MPH (16 knots; 8.2 m/s)
Visibility: 6 or more miles (10+ km)
Ceiling: at least 12,000 feet AGL
Clouds: scattered clouds at 3600 feet AGL
Weather: no significant weather observed at this time

METAR text: YBCS 200330Z AUTO 14016KT 9999 // SCT032 30/22 Q1010 RMK RF00.0/000.0 NOSIG
Conditions at: YBCS (CAIRNS AIRPORT , AU) observed 0330 UTC 20 January 2019
Temperature: 30.0°C (86°F)
Dewpoint: 22.0°C (72°F) [RH = 62%]
Pressure (altimeter): 29.82 inches Hg (1010.0 mb)
Winds: from the SE (140 degrees) at 18 MPH (16 knots; 8.2 m/s)
Visibility: 6 or more miles (10+ km)
Ceiling: at least 12,000 feet AGL
Clouds: scattered clouds at 3200 feet AGL
Weather: no significant weather observed at this time

METAR text: YBCS 200300Z AUTO 13016KT 9999 // NCD 30/23 Q1010 RMK RF00.0/000.0 NOSIG
Conditions at: YBCS (CAIRNS AIRPORT , AU) observed 0300 UTC 20 January 2019
Temperature: 30.0°C (86°F)
Dewpoint: 23.0°C (73°F) [RH = 66%]
Pressure (altimeter): 29.82 inches Hg (1010.0 mb)
Winds: from the SE (130 degrees) at 18 MPH (16 knots; 8.2 m/s)
Visibility: 6 or more miles (10+ km)
Ceiling: at least 12,000 feet AGL
Clouds: sky clear below 12,000 feet AGL
Weather: no significant weather observed at this time

METAR text: YBCS 200230Z AUTO 13016KT 9999 // NCD 30/23 Q1010 RMK RF00.0/000.0 NOSIG
Conditions at: YBCS (CAIRNS AIRPORT , AU) observed 0230 UTC 20 January 2019
Temperature: 30.0°C (86°F)
Dewpoint: 23.0°C (73°F) [RH = 66%]
Pressure (altimeter): 29.82 inches Hg (1010.0 mb)
Winds: from the SE (130 degrees) at 18 MPH (16 knots; 8.2 m/s)
Visibility: 6 or more miles (10+ km)
Ceiling: at least 12,000 feet AGL
Clouds: sky clear below 12,000 feet AGL
Weather: no significant weather observed at this time

METAR text: YBCS 200200Z AUTO 13017KT 9999 // NCD 30/22 Q1011 RMK RF00.0/000.0 NOSIG
Conditions at: YBCS (CAIRNS AIRPORT , AU) observed 0200 UTC 20 January 2019
Temperature: 30.0°C (86°F)
Dewpoint: 22.0°C (72°F) [RH = 62%]
Pressure (altimeter): 29.85 inches Hg (1011.0 mb)
Winds: from the SE (130 degrees) at 20 MPH (17 knots; 8.7 m/s)
Visibility: 6 or more miles (10+ km)
Ceiling: at least 12,000 feet AGL
Clouds: sky clear below 12,000 feet AGL
Weather: no significant weather observed at this time

METAR text: YBCS 200130Z AUTO 14016KT 9999 // SCT032 SCT046 30/23 Q1011 RMK RF00.0/000.0 NOSIG
Conditions at: YBCS (CAIRNS AIRPORT , AU) observed 0130 UTC 20 January 2019
Temperature: 30.0°C (86°F)
Dewpoint: 23.0°C (73°F) [RH = 66%]
Pressure (altimeter): 29.85 inches Hg (1011.0 mb)
Winds: from the SE (140 degrees) at 18 MPH (16 knots; 8.2 m/s)
Visibility: 6 or more miles (10+ km)
Ceiling: at least 12,000 feet AGL
Clouds: scattered clouds at 3200 feet AGL
scattered clouds at 4600 feet AGL
Weather: no significant weather observed at this time

METAR text: YBCS 200100Z AUTO 14010KT 9999 // SCT010 SCT034 SCT044 29/24 Q1012 RMK RF00.0/000.0 NOSIG
Conditions at: YBCS (CAIRNS AIRPORT , AU) observed 0100 UTC 20 January 2019
Temperature: 29.0°C (84°F)
Dewpoint: 24.0°C (75°F) [RH = 74%]
Pressure (altimeter): 29.88 inches Hg (1012.0 mb)
Winds: from the SE (140 degrees) at 12 MPH (10 knots; 5.1 m/s)
Visibility: 6 or more miles (10+ km)
Ceiling: at least 12,000 feet AGL
Clouds: scattered clouds at 1000 feet AGL
scattered clouds at 3400 feet AGL
scattered clouds at 4400 feet AGL
Weather: no significant weather observed at this time

METAR text: YBCS 200030Z AUTO 17008KT 9999 // SCT035 SCT065 OVC076 28/23 Q1012 RMK RF00.0/000.0 NOSIG
Conditions at: YBCS (CAIRNS AIRPORT , AU) observed 0030 UTC 20 January 2019
Temperature: 28.0°C (82°F)
Dewpoint: 23.0°C (73°F) [RH = 74%]
Pressure (altimeter): 29.88 inches Hg (1012.0 mb)
Winds: from the S (170 degrees) at 9 MPH (8 knots; 4.1 m/s)
Visibility: 6 or more miles (10+ km)
Ceiling: 7600 feet AGL
Clouds: scattered clouds at 3500 feet AGL
scattered clouds at 6500 feet AGL
overcast cloud deck at 7600 feet AGL
Weather: no significant weather observed at this time

METAR text: YBCS 200000Z AUTO 18009KT 9999 // OVC068 27/23 Q1012 RMK RF00.0/000.0 NOSIG
Conditions at: YBCS (CAIRNS AIRPORT , AU) observed 0000 UTC 20 January 2019
Temperature: 27.0°C (81°F)
Dewpoint: 23.0°C (73°F) [RH = 79%]
Pressure (altimeter): 29.88 inches Hg (1012.0 mb)
Winds: from the S (180 degrees) at 10 MPH (9 knots; 4.6 m/s)
Visibility: 6 or more miles (10+ km)
Ceiling: 6800 feet AGL
Clouds: overcast cloud deck at 6800 feet AGL
Weather: no significant weather observed at this time

METAR text: YBCS 192330Z AUTO 18009KT 9999 // OVC062 26/22 Q1012 RMK RF00.0/000.0 NOSIG
Conditions at: YBCS (CAIRNS AIRPORT , AU) observed 2330 UTC 19 January 2019
Temperature: 26.0°C (79°F)
Dewpoint: 22.0°C (72°F) [RH = 79%]
Pressure (altimeter): 29.88 inches Hg (1012.0 mb)
Winds: from the S (180 degrees) at 10 MPH (9 knots; 4.6 m/s)
Visibility: 6 or more miles (10+ km)
Ceiling: 6200 feet AGL
Clouds: overcast cloud deck at 6200 feet AGL
Weather: no significant weather observed at this time

METAR text: YBCS 192300Z AUTO 16009KT 9999 SHRA SCT030 SCT043 BKN049 25/23 Q1012 RMK RF00.0/003.8 NOSIG
Conditions at: YBCS (CAIRNS AIRPORT , AU) observed 2300 UTC 19 January 2019
Temperature: 25.0°C (77°F)
Dewpoint: 23.0°C (73°F) [RH = 89%]
Pressure (altimeter): 29.88 inches Hg (1012.0 mb)
Winds: from the SSE (160 degrees) at 10 MPH (9 knots; 4.6 m/s)
Visibility: 6 or more miles (10+ km)
Ceiling: 4900 feet AGL
Clouds: scattered clouds at 3000 feet AGL
scattered clouds at 4300 feet AGL
broken clouds at 4900 feet AGL
Weather: SHRA  (rain showers)

METAR text: YBCS 192230Z AUTO 18011KT 9999 // SCT056 OVC075 26/22 Q1011 RMK RF00.0/003.4 NOSIG
Conditions at: YBCS (CAIRNS AIRPORT , AU) observed 2230 UTC 19 January 2019
Temperature: 26.0°C (79°F)
Dewpoint: 22.0°C (72°F) [RH = 79%]
Pressure (altimeter): 29.85 inches Hg (1011.0 mb)
Winds: from the S (180 degrees) at 13 MPH (11 knots; 5.7 m/s)
Visibility: 6 or more miles (10+ km)
Ceiling: 7500 feet AGL
Clouds: scattered clouds at 5600 feet AGL
overcast cloud deck at 7500 feet AGL
Weather: no significant weather observed at this time

METAR text: YBCS 192200Z AUTO 16009KT 9999 // SCT035 BKN054 BKN071 26/22 Q1011 RMK RF00.0/003.4 NOSIG
Conditions at: YBCS (CAIRNS AIRPORT , AU) observed 2200 UTC 19 January 2019
Temperature: 26.0°C (79°F)
Dewpoint: 22.0°C (72°F) [RH = 79%]
Pressure (altimeter): 29.85 inches Hg (1011.0 mb)
Winds: from the SSE (160 degrees) at 10 MPH (9 knots; 4.6 m/s)
Visibility: 6 or more miles (10+ km)
Ceiling: 5400 feet AGL
Clouds: scattered clouds at 3500 feet AGL
broken clouds at 5400 feet AGL
broken clouds at 7100 feet AGL
Weather: no significant weather observed at this time

METAR text: YBCS 192130Z AUTO 16009KT 120V180 9999 // NCD 27/22 Q1011 RMK RF00.0/003.4 NOSIG
Conditions at: YBCS (CAIRNS AIRPORT , AU) observed 2130 UTC 19 January 2019
Temperature: 27.0°C (81°F)
Dewpoint: 22.0°C (72°F) [RH = 74%]
Pressure (altimeter): 29.85 inches Hg (1011.0 mb)
Winds: from the SSE (160 degrees) at 10 MPH (9 knots; 4.6 m/s)
Visibility: 6 or more miles (10+ km)
Ceiling: at least 12,000 feet AGL
Clouds: sky clear below 12,000 feet AGL
Weather: no significant weather observed at this time

METAR text: YBCS 192100Z AUTO 18009KT 9999 // SCT036 SCT041 SCT046 26/21 Q1010 RMK RF00.0/003.4 NOSIG
Conditions at: YBCS (CAIRNS AIRPORT , AU) observed 2100 UTC 19 January 2019
Temperature: 26.0°C (79°F)
Dewpoint: 21.0°C (70°F) [RH = 74%]
Pressure (altimeter): 29.82 inches Hg (1010.0 mb)
Winds: from the S (180 degrees) at 10 MPH (9 knots; 4.6 m/s)
Visibility: 6 or more miles (10+ km)
Ceiling: at least 12,000 feet AGL
Clouds: scattered clouds at 3600 feet AGL
scattered clouds at 4100 feet AGL
scattered clouds at 4600 feet AGL
Weather: no significant weather observed at this time

METAR text: YBCS 192030Z AUTO 17009KT 9999 // NCD 25/22 Q1010 RMK RF00.0/003.4 NOSIG
Conditions at: YBCS (CAIRNS AIRPORT , AU) observed 2030 UTC 19 January 2019
Temperature: 25.0°C (77°F)
Dewpoint: 22.0°C (72°F) [RH = 83%]
Pressure (altimeter): 29.82 inches Hg (1010.0 mb)
Winds: from the S (170 degrees) at 10 MPH (9 knots; 4.6 m/s)
Visibility: 6 or more miles (10+ km)
Ceiling: at least 12,000 feet AGL
Clouds: sky clear below 12,000 feet AGL
Weather: no significant weather observed at this time

METAR text: YBCS 192000Z AUTO 17009KT 9999 // NCD 25/22 Q1010 RMK RF00.0/003.4 NOSIG
Conditions at: YBCS (CAIRNS AIRPORT , AU) observed 2000 UTC 19 January 2019
Temperature: 25.0°C (77°F)
Dewpoint: 22.0°C (72°F) [RH = 83%]
Pressure (altimeter): 29.82 inches Hg (1010.0 mb)
Winds: from the S (170 degrees) at 10 MPH (9 knots; 4.6 m/s)
Visibility: 6 or more miles (10+ km)
Ceiling: at least 12,000 feet AGL
Clouds: sky clear below 12,000 feet AGL
Weather: no significant weather observed at this time

METAR text: YBCS 191930Z AUTO 17008KT 9999 // NCD 25/21 Q1009 RMK RF00.0/003.4 NOSIG
Conditions at: YBCS (CAIRNS AIRPORT , AU) observed 1930 UTC 19 January 2019
Temperature: 25.0°C (77°F)
Dewpoint: 21.0°C (70°F) [RH = 79%]
Pressure (altimeter): 29.79 inches Hg (1009.0 mb)
Winds: from the S (170 degrees) at 9 MPH (8 knots; 4.1 m/s)
Visibility: 6 or more miles (10+ km)
Ceiling: at least 12,000 feet AGL
Clouds: sky clear below 12,000 feet AGL
Weather: no significant weather observed at this time

METAR text: YBCS 191900Z AUTO 15007KT 9999 // SCT060 25/22 Q1009 RMK RF00.0/003.4 NOSIG
Conditions at: YBCS (CAIRNS AIRPORT , AU) observed 1900 UTC 19 January 2019
Temperature: 25.0°C (77°F)
Dewpoint: 22.0°C (72°F) [RH = 83%]
Pressure (altimeter): 29.79 inches Hg (1009.0 mb)
Winds: from the SSE (150 degrees) at 8 MPH (7 knots; 3.6 m/s)
Visibility: 6 or more miles (10+ km)
Ceiling: at least 12,000 feet AGL
Clouds: scattered clouds at 6000 feet AGL
Weather: no significant weather observed at this time

METAR text: YBCS 191830Z AUTO 14008KT 110V170 9999 // SCT052 SCT061 25/22 Q1009 RMK RF00.0/003.4 NOSIG
Conditions at: YBCS (CAIRNS AIRPORT , AU) observed 1830 UTC 19 January 2019
Temperature: 25.0°C (77°F)
Dewpoint: 22.0°C (72°F) [RH = 83%]
Pressure (altimeter): 29.79 inches Hg (1009.0 mb)
Winds: from the SE (140 degrees) at 9 MPH (8 knots; 4.1 m/s)
Visibility: 6 or more miles (10+ km)
Ceiling: at least 12,000 feet AGL
Clouds: scattered clouds at 5200 feet AGL
scattered clouds at 6100 feet AGL
Weather: no significant weather observed at this time

METAR text: YBCS 191800Z AUTO 18009KT 9999 // BKN057 BKN065 25/22 Q1009 RMK RF00.0/003.4 NOSIG
Conditions at: YBCS (CAIRNS AIRPORT , AU) observed 1800 UTC 19 January 2019
Temperature: 25.0°C (77°F)
Dewpoint: 22.0°C (72°F) [RH = 83%]
Pressure (altimeter): 29.79 inches Hg (1009.0 mb)
Winds: from the S (180 degrees) at 10 MPH (9 knots; 4.6 m/s)
Visibility: 6 or more miles (10+ km)
Ceiling: 5700 feet AGL
Clouds: broken clouds at 5700 feet AGL
broken clouds at 6500 feet AGL
Weather: no significant weather observed at this time

METAR text: YBCS 191730Z AUTO 17009KT 9999 // SCT047 OVC060 25/22 Q1009 RMK RF00.0/003.4 NOSIG
Conditions at: YBCS (CAIRNS AIRPORT , AU) observed 1730 UTC 19 January 2019
Temperature: 25.0°C (77°F)
Dewpoint: 22.0°C (72°F) [RH = 83%]
Pressure (altimeter): 29.79 inches Hg (1009.0 mb)
Winds: from the S (170 degrees) at 10 MPH (9 knots; 4.6 m/s)
Visibility: 6 or more miles (10+ km)
Ceiling: 6000 feet AGL
Clouds: scattered clouds at 4700 feet AGL
overcast cloud deck at 6000 feet AGL
Weather: no significant weather observed at this time

METAR text: YBCS 191700Z AUTO 16009KT 9999 // SCT025 SCT038 SCT045 25/22 Q1009 RMK RF00.0/003.4 NOSIG
Conditions at: YBCS (CAIRNS AIRPORT , AU) observed 1700 UTC 19 January 2019
Temperature: 25.0°C (77°F)
Dewpoint: 22.0°C (72°F) [RH = 83%]
Pressure (altimeter): 29.79 inches Hg (1009.0 mb)
Winds: from the SSE (160 degrees) at 10 MPH (9 knots; 4.6 m/s)
Visibility: 6 or more miles (10+ km)
Ceiling: at least 12,000 feet AGL
Clouds: scattered clouds at 2500 feet AGL
scattered clouds at 3800 feet AGL
scattered clouds at 4500 feet AGL
Weather: no significant weather observed at this time

METAR text: YBCS 191630Z AUTO 16006KT 9999 // SCT023 SCT029 OVC057 25/23 Q1009 RMK RF00.0/003.4 NOSIG
Conditions at: YBCS (CAIRNS AIRPORT , AU) observed 1630 UTC 19 January 2019
Temperature: 25.0°C (77°F)
Dewpoint: 23.0°C (73°F) [RH = 89%]
Pressure (altimeter): 29.79 inches Hg (1009.0 mb)
Winds: from the SSE (160 degrees) at 7 MPH (6 knots; 3.1 m/s)
Visibility: 6 or more miles (10+ km)
Ceiling: 5700 feet AGL
Clouds: scattered clouds at 2300 feet AGL
scattered clouds at 2900 feet AGL
overcast cloud deck at 5700 feet AGL
Weather: no significant weather observed at this time

METAR text: YBCS 191600Z AUTO 15010KT 9999 DZ SCT039 SCT044 BKN051 24/22 Q1009 RMK RF00.0/003.4 NOSIG
Conditions at: YBCS (CAIRNS AIRPORT , AU) observed 1600 UTC 19 January 2019
Temperature: 24.0°C (75°F)
Dewpoint: 22.0°C (72°F) [RH = 89%]
Pressure (altimeter): 29.79 inches Hg (1009.0 mb)
Winds: from the SSE (150 degrees) at 12 MPH (10 knots; 5.1 m/s)
Visibility: 6 or more miles (10+ km)
Ceiling: 5100 feet AGL
Clouds: scattered clouds at 3900 feet AGL
scattered clouds at 4400 feet AGL
broken clouds at 5100 feet AGL
Weather: DZ  (moderate drizzle)

METAR text: YBCS 191530Z AUTO 19010KT 9999 // OVC062 25/22 Q1010 RMK RF00.0/003.4 NOSIG
Conditions at: YBCS (CAIRNS AIRPORT , AU) observed 1530 UTC 19 January 2019
Temperature: 25.0°C (77°F)
Dewpoint: 22.0°C (72°F) [RH = 83%]
Pressure (altimeter): 29.82 inches Hg (1010.0 mb)
Winds: from the S (190 degrees) at 12 MPH (10 knots; 5.1 m/s)
Visibility: 6 or more miles (10+ km)
Ceiling: 6200 feet AGL
Clouds: overcast cloud deck at 6200 feet AGL
Weather: no significant weather observed at this time

METAR text: YBCS 191500Z AUTO 19007KT 9999 // OVC064 26/22 Q1010 RMK RF00.0/003.4 NOSIG
Conditions at: YBCS (CAIRNS AIRPORT , AU) observed 1500 UTC 19 January 2019
Temperature: 26.0°C (79°F)
Dewpoint: 22.0°C (72°F) [RH = 79%]
Pressure (altimeter): 29.82 inches Hg (1010.0 mb)
Winds: from the S (190 degrees) at 8 MPH (7 knots; 3.6 m/s)
Visibility: 6 or more miles (10+ km)
Ceiling: 6400 feet AGL
Clouds: overcast cloud deck at 6400 feet AGL
Weather: no significant weather observed at this time

METAR text: YBCS 191430Z AUTO 18009KT 9999 // SCT047 OVC064 26/22 Q1010 RMK RF00.0/003.4 NOSIG
Conditions at: YBCS (CAIRNS AIRPORT , AU) observed 1430 UTC 19 January 2019
Temperature: 26.0°C (79°F)
Dewpoint: 22.0°C (72°F) [RH = 79%]
Pressure (altimeter): 29.82 inches Hg (1010.0 mb)
Winds: from the S (180 degrees) at 10 MPH (9 knots; 4.6 m/s)
Visibility: 6 or more miles (10+ km)
Ceiling: 6400 feet AGL
Clouds: scattered clouds at 4700 feet AGL
overcast cloud deck at 6400 feet AGL
Weather: no significant weather observed at this time

METAR text: YBCS 191400Z AUTO 18011KT 9999 // SCT050 OVC066 26/22 Q1011 RMK RF00.0/003.4 NOSIG
Conditions at: YBCS (CAIRNS AIRPORT , AU) observed 1400 UTC 19 January 2019
Temperature: 26.0°C (79°F)
Dewpoint: 22.0°C (72°F) [RH = 79%]
Pressure (altimeter): 29.85 inches Hg (1011.0 mb)
Winds: from the S (180 degrees) at 13 MPH (11 knots; 5.7 m/s)
Visibility: 6 or more miles (10+ km)
Ceiling: 6600 feet AGL
Clouds: scattered clouds at 5000 feet AGL
overcast cloud deck at 6600 feet AGL
Weather: no significant weather observed at this time

METAR text: YBCS 191330Z AUTO 17009KT 9999 -SHRA SCT026 SCT032 BKN043 25/23 Q1011 RMK RF00.0/003.4 NOSIG
Conditions at: YBCS (CAIRNS AIRPORT , AU) observed 1330 UTC 19 January 2019
Temperature: 25.0°C (77°F)
Dewpoint: 23.0°C (73°F) [RH = 89%]
Pressure (altimeter): 29.85 inches Hg (1011.0 mb)
Winds: from the S (170 degrees) at 10 MPH (9 knots; 4.6 m/s)
Visibility: 6 or more miles (10+ km)
Ceiling: 4300 feet AGL
Clouds: scattered clouds at 2600 feet AGL
scattered clouds at 3200 feet AGL
broken clouds at 4300 feet AGL
Weather: -SHRA  (light rain showers)

METAR text: YBCS 191300Z AUTO 15008KT 9999 -SHRA SCT026 SCT030 SCT038 26/22 Q1011 RMK RF00.0/003.4 NOSIG
Conditions at: YBCS (CAIRNS AIRPORT , AU) observed 1300 UTC 19 January 2019
Temperature: 26.0°C (79°F)
Dewpoint: 22.0°C (72°F) [RH = 79%]
Pressure (altimeter): 29.85 inches Hg (1011.0 mb)
Winds: from the SSE (150 degrees) at 9 MPH (8 knots; 4.1 m/s)
Visibility: 6 or more miles (10+ km)
Ceiling: at least 12,000 feet AGL
Clouds: scattered clouds at 2600 feet AGL
scattered clouds at 3000 feet AGL
scattered clouds at 3800 feet AGL
Weather: -SHRA  (light rain showers)

METAR text: YBCS 191230Z AUTO 16007KT 9999 // SCT043 SCT058 SCT105 26/22 Q1012 RMK RF00.0/003.4 NOSIG
Conditions at: YBCS (CAIRNS AIRPORT , AU) observed 1230 UTC 19 January 2019
Temperature: 26.0°C (79°F)
Dewpoint: 22.0°C (72°F) [RH = 79%]
Pressure (altimeter): 29.88 inches Hg (1012.0 mb)
Winds: from the SSE (160 degrees) at 8 MPH (7 knots; 3.6 m/s)
Visibility: 6 or more miles (10+ km)
Ceiling: at least 12,000 feet AGL
Clouds: scattered clouds at 4300 feet AGL
scattered clouds at 5800 feet AGL
scattered clouds at 10500 feet AGL
Weather: no significant weather observed at this time

METAR text: YBCS 191200Z AUTO 16007KT 9999 // NCD 26/23 Q1012 RMK RF00.0/003.4 NOSIG
Conditions at: YBCS (CAIRNS AIRPORT , AU) observed 1200 UTC 19 January 2019
Temperature: 26.0°C (79°F)
Dewpoint: 23.0°C (73°F) [RH = 84%]
Pressure (altimeter): 29.88 inches Hg (1012.0 mb)
Winds: from the SSE (160 degrees) at 8 MPH (7 knots; 3.6 m/s)
Visibility: 6 or more miles (10+ km)
Ceiling: at least 12,000 feet AGL
Clouds: sky clear below 12,000 feet AGL
Weather: no significant weather observed at this time

Forecast for: YBCS (CAIRNS AIRPORT , AU)
Text: TAF YBCS 202306Z 2100/2124 16010KT 9999 -SHRA FEW025 BKN045
Forecast period: 0000 to 0100 UTC 21 January 2019
Forecast type: FROM: standard forecast or significant change
Winds: from the SSE (160 degrees) at 12 MPH (10 knots; 5.1 m/s)
Visibility: 6 or more miles 10+ km)
Ceiling: 4500 feet AGL
Clouds: few clouds at 2500 feet AGL
broken clouds at 4500 feet AGL
Weather: -SHRA  (light rain showers)
Text: FM210100 12014KT 9999 FEW030 SCT045
Forecast period: 0100 to 1000 UTC 21 January 2019
Forecast type: FROM: standard forecast or significant change
Winds: from the ESE (120 degrees) at 16 MPH (14 knots; 7.2 m/s)
Visibility: 6 or more miles 10+ km)
Ceiling: at least 12,000 feet AGL
Clouds: few clouds at 3000 feet AGL
scattered clouds at 4500 feet AGL
Weather: no significant weather forecast for this period
Text: FM211000 16010KT 9999 -SHRA FEW025 BKN035 INTER 2100/2114 5000 SHRA BKN018
Forecast period: 1000 UTC 21 January 2019 to 0000 UTC 22 January 2019
Forecast type: FROM: standard forecast or significant change
Winds: from the SSE (160 degrees) at 12 MPH (10 knots; 5.1 m/s)
Visibility: 6 or more miles 10+ km)
Ceiling: 3500 feet AGL
Clouds: few clouds at 2500 feet AGL
broken clouds at 3500 feet AGL
Weather: -SHRA  (light rain showers)
Text:
Forecast period: 0000 to 1400 UTC 21 January 2019
Forecast type: TEMPORARY: The following changes expected for less than half the time period
Visibility: 3 miles (5 km)
Ceiling: 1800 feet AGL
Clouds: broken clouds at 1800 feet AGL
Weather: SHRA  (rain showers)